Hauptseite
METAR-TAF:

METAR-TAF

Flughäfen :

Gran Canaria, Spanien

Flughafen Gran Canaria

Breite: 27-56N, Länge: 015-23W, Höhe: 23 m

Beobachtung

Neuester Wetterbericht von vor 19 Minuten, um 23:30 UTC
Wind 17 kt aus Nord
Temperatur 23°C
Luftfeuchtigkeit 83%
Luftdruck 1017 hPa
Sichtweite 10 km oder mehr
Leicht bewölkt in der Höhe von 1700 ft

METAR: GCLP 162330Z 01017KT 9999 FEW017 23/20 Q1017 NOSIG

Zeit: 00:49 (23:49 UTC)

Prognose

Neuester Wetterbericht von vor 3 Stunden und 49 Minuten, um 20:00 UTC
Gültige Prognose vom 16 um 21 UTC bis 17 um 21 UTC
Wind 18 kt aus Nord
Sichtweite 10 km oder mehr
Leicht bewölkt in der Höhe von 1700 ft

TAF: GCLP 162000Z 1621/1721 01018KT 9999 FEW017 TX29/1713Z TN21/1705Z

Wetterbeobachtungen und Prognosen von mehr als 4000 Flughäfen (METAR und TAF Bericht).

Die verfügbaren Stationen werden durch gelbe und rote Markierungen auf der Karte dargestellt.

Führen Sie die Maus auf sie, um den Namen der Station zu sehen.

Darauf klicken, um die Beobachtung von Wetterbeobachtungen und Prognosen zu sehen.

Um die Karte zu ändern : klicken Sie auf den grünen Tasten mit einem schwarzen Kreuz Zum Vergrößern, auf den grünen Button mit einem Gedankenstrich zu verkleinern, oder auf die grünen Pfeile für benachbarte Karten.


METAR-TAF: